Time;durP1;ratioP1;P1;durP2;ratioP2;P2;SDS_P1;SDS_P2;PMS_P1;PMS_P2;Temp;Humidity;BMP_temperature;BMP_pressure;BME280_temperature;BME280_humidity;BME280_pressure;Samples;Min_cycle;Max_cycle;Signal;HPM_P1;HPM_P2
2023/05/28 00:00:58;;;;;;;7.28;2.97;;;11.10;1.00;;;;;;5073358;28;20123;-63
2023/05/28 00:03:25;;;;;;;4.10;1.52;;;11.10;1.00;;;;;;5073125;28;20124;-63
2023/05/28 00:05:50;;;;;;;5.15;1.98;;;11.10;97.00;;;;;;5073410;28;20037;-63
2023/05/28 00:08:16;;;;;;;6.68;1.83;;;11.00;99.90;;;;;;5073090;28;20040;-63
2023/05/28 00:10:42;;;;;;;5.57;2.30;;;11.00;99.90;;;;;;5073345;28;20117;-64
2023/05/28 00:13:08;;;;;;;4.85;1.95;;;11.00;99.90;;;;;;5073002;28;20048;-63
2023/05/28 00:15:33;;;;;;;6.05;2.00;;;11.00;99.90;;;;;;5072959;28;20040;-63
2023/05/28 00:17:59;;;;;;;5.88;1.77;;;10.90;99.90;;;;;;5073261;28;20111;-63
2023/05/28 00:20:25;;;;;;;5.40;1.70;;;10.90;99.90;;;;;;5073107;28;20036;-63
2023/05/28 00:22:51;;;;;;;3.53;1.67;;;11.50;99.90;;;;;;5073206;28;20059;-63
2023/05/28 00:25:16;;;;;;;5.10;2.20;;;11.30;99.90;;;;;;5073132;28;20491;-63
2023/05/28 00:27:42;;;;;;;12.40;2.35;;;10.80;99.90;;;;;;5073081;28;20396;-63
2023/05/28 00:30:08;;;;;;;8.07;2.00;;;10.80;99.90;;;;;;5073007;28;20392;-63
2023/05/28 00:32:33;;;;;;;7.30;2.67;;;10.80;99.90;;;;;;5072777;28;20182;-63
2023/05/28 00:34:59;;;;;;;6.63;2.05;;;10.80;1.00;;;;;;5072994;28;20028;-63
2023/05/28 00:37:25;;;;;;;8.23;2.22;;;10.80;93.70;;;;;;5073015;28;20468;-63
2023/05/28 00:39:50;;;;;;;3.00;1.92;;;10.70;1.00;;;;;;5072951;28;20086;-63
2023/05/28 00:42:16;;;;;;;4.97;2.20;;;10.70;99.90;;;;;;5073016;28;20085;-63
2023/05/28 00:44:42;;;;;;;3.95;1.92;;;10.80;99.90;;;;;;5072886;28;20033;-63
2023/05/28 00:47:09;;;;;;;4.38;1.77;;;10.70;99.90;;;;;;5072927;28;20044;-63
2023/05/28 00:49:35;;;;;;;3.80;1.90;;;10.70;99.90;;;;;;5072922;28;20040;-63
2023/05/28 00:52:02;;;;;;;3.60;2.10;;;10.70;98.50;;;;;;5072923;28;20040;-63
2023/05/28 00:54:29;;;;;;;5.57;1.80;;;10.60;1.00;;;;;;5054626;28;20389;-63
2023/05/28 00:56:57;;;;;;;7.65;2.10;;;10.70;99.90;;;;;;5072821;28;20044;-63
2023/05/28 00:59:24;;;;;;;9.25;1.95;;;11.10;99.90;;;;;;5072397;28;20124;-63
2023/05/28 01:01:50;;;;;;;6.68;2.10;;;10.70;99.90;;;;;;5054511;28;20040;-63
2023/05/28 01:04:16;;;;;;;3.88;2.08;;;10.70;99.90;;;;;;5072744;28;20047;-63
2023/05/28 01:06:43;;;;;;;6.13;1.83;;;10.70;85.40;;;;;;5075688;28;20036;-63
2023/05/28 01:09:09;;;;;;;4.75;2.20;;;10.70;99.90;;;;;;5076502;28;20389;-63
2023/05/28 01:11:37;;;;;;;4.90;2.20;;;10.70;99.90;;;;;;5076737;28;20059;-63
2023/05/28 01:14:05;;;;;;;10.57;2.03;;;10.70;99.90;;;;;;5076266;28;20103;-63
2023/05/28 01:16:32;;;;;;;4.90;2.50;;;10.70;99.90;;;;;;5058385;28;20056;-63
2023/05/28 01:18:58;;;;;;;9.55;2.33;;;10.70;99.90;;;;;;5076560;28;20463;-63
2023/05/28 01:21:27;;;;;;;9.75;1.98;;;10.70;99.90;;;;;;5076470;28;20078;-63
2023/05/28 01:23:54;;;;;;;6.35;2.22;;;10.90;1.00;;;;;;5058289;28;20115;-63
2023/05/28 01:26:21;;;;;;;9.13;2.80;;;10.70;99.90;;;;;;5076438;28;20045;-63
2023/05/28 01:28:48;;;;;;;7.78;2.17;;;10.70;19.30;;;;;;5076121;28;20185;-63
2023/05/28 01:31:15;;;;;;;7.35;2.00;;;10.70;1.00;;;;;;5076062;28;20044;-63
2023/05/28 01:33:43;;;;;;;13.70;2.50;;;10.70;99.90;;;;;;5074711;28;20041;-63
2023/05/28 01:36:19;;;;;;;3.63;1.85;;;10.60;99.90;;;;;;5075952;28;20068;-63
2023/05/28 01:38:47;;;;;;;5.32;2.03;;;10.70;99.90;;;;;;5058406;28;20050;-63
2023/05/28 01:41:14;;;;;;;6.78;2.08;;;11.30;99.90;;;;;;5076102;28;20037;-63
2023/05/28 01:43:41;;;;;;;9.00;2.28;;;10.70;99.90;;;;;;5075714;28;20086;-63
2023/05/28 01:46:08;;;;;;;5.03;2.35;;;10.70;1.00;;;;;;5075848;28;20036;-63
2023/05/28 01:48:34;;;;;;;6.18;2.53;;;10.70;99.90;;;;;;5076018;28;20079;-63
2023/05/28 01:51:00;;;;;;;3.67;2.28;;;10.70;1.00;;;;;;5075968;28;20424;-63
2023/05/28 01:53:25;;;;;;;12.68;2.67;;;11.50;99.90;;;;;;5075902;28;20044;-63
2023/05/28 01:55:51;;;;;;;6.78;2.13;;;10.70;99.90;;;;;;5075947;28;20090;-63
2023/05/28 01:58:17;;;;;;;8.05;1.92;;;10.70;99.90;;;;;;5075840;28;20036;-63
2023/05/28 02:00:51;;;;;;;5.50;2.15;;;10.70;99.90;;;;;;5075622;28;20144;-63
2023/05/28 02:03:17;;;;;;;4.03;2.00;;;10.70;1.00;;;;;;5075748;28;20119;-63
2023/05/28 02:05:42;;;;;;;9.00;1.98;;;10.70;1.00;;;;;;5075707;28;20545;-63
2023/05/28 02:08:08;;;;;;;4.90;1.90;;;10.70;12.30;;;;;;5057394;28;20044;-63
2023/05/28 02:10:33;;;;;;;3.72;1.67;;;11.50;99.90;;;;;;5075413;28;20044;-63
2023/05/28 02:13:00;;;;;;;10.50;3.00;;;10.80;99.90;;;;;;5075317;28;20492;-63
2023/05/28 02:15:26;;;;;;;6.97;2.20;;;10.70;1.00;;;;;;5075472;28;20412;-63
2023/05/28 02:17:51;;;;;;;5.18;2.22;;;10.70;99.90;;;;;;5075134;28;20033;-63
2023/05/28 02:20:17;;;;;;;4.65;2.10;;;10.70;99.90;;;;;;5075437;28;20067;-63
2023/05/28 02:22:43;;;;;;;4.97;2.40;;;10.70;1.00;;;;;;5075374;28;20032;-63
2023/05/28 02:25:08;;;;;;;6.70;2.30;;;10.70;28.30;;;;;;5075296;28;20032;-63
2023/05/28 02:27:35;;;;;;;4.30;1.80;;;10.70;99.90;;;;;;5075012;28;20467;-63
2023/05/28 02:30:01;;;;;;;8.45;2.40;;;10.60;99.90;;;;;;5075297;28;20123;-63
2023/05/28 02:32:27;;;;;;;7.55;2.03;;;10.30;99.90;;;;;;5056921;28;20135;-63
2023/05/28 02:34:54;;;;;;;7.50;2.55;;;10.60;99.90;;;;;;5075102;28;20037;-63
2023/05/28 02:37:23;;;;;;;4.68;2.15;;;10.60;99.90;;;;;;5075170;28;20040;-63
2023/05/28 02:39:50;;;;;;;9.85;2.40;;;10.80;99.90;;;;;;5074712;28;20051;-63
2023/05/28 02:42:16;;;;;;;3.53;2.15;;;10.60;1.00;;;;;;5056903;28;20044;-63
2023/05/28 02:44:42;;;;;;;4.53;2.42;;;10.70;99.90;;;;;;5056719;28;20668;-63
2023/05/28 02:47:07;;;;;;;5.95;2.00;;;10.70;99.90;;;;;;5075020;28;20032;-63
2023/05/28 02:49:33;;;;;;;4.45;1.80;;;10.60;99.90;;;;;;5056713;28;20044;-63
2023/05/28 02:51:58;;;;;;;12.45;2.78;;;10.70;99.90;;;;;;5074918;28;20083;-63
2023/05/28 02:54:24;;;;;;;6.63;2.20;;;10.70;99.90;;;;;;5074785;28;20530;-63
2023/05/28 02:56:51;;;;;;;6.57;2.28;;;10.70;99.90;;;;;;5073577;28;20036;-63
2023/05/28 02:59:17;;;;;;;4.65;2.25;;;10.70;99.90;;;;;;5056353;28;20094;-63
2023/05/28 03:01:42;;;;;;;6.75;2.40;;;10.70;99.90;;;;;;5074349;28;20484;-63
2023/05/28 03:04:08;;;;;;;7.15;2.60;;;10.70;99.90;;;;;;5074643;28;20098;-63
2023/05/28 03:06:34;;;;;;;6.18;2.00;;;10.70;99.90;;;;;;5074559;28;20071;-63
2023/05/28 03:08:59;;;;;;;5.03;2.30;;;10.70;26.80;;;;;;5074591;28;20071;-63
2023/05/28 03:11:25;;;;;;;6.80;2.42;;;10.70;1.00;;;;;;5074413;28;20116;-63
2023/05/28 03:13:50;;;;;;;8.88;2.40;;;10.70;8.00;;;;;;5074069;28;20127;-63
2023/05/28 03:16:16;;;;;;;7.18;2.10;;;10.80;99.90;;;;;;5074365;28;20033;-63
2023/05/28 03:18:42;;;;;;;4.82;2.10;;;10.70;99.90;;;;;;5074257;28;20142;-63
2023/05/28 03:21:09;;;;;;;6.97;2.25;;;10.80;99.90;;;;;;5074217;28;20036;-63
2023/05/28 03:23:34;;;;;;;5.97;2.33;;;10.70;99.90;;;;;;5074232;28;20079;-63
2023/05/28 03:26:00;;;;;;;9.80;2.88;;;10.70;98.80;;;;;;5056018;28;20136;-63
2023/05/28 03:28:25;;;;;;;8.75;2.15;;;10.70;99.90;;;;;;5055996;28;20040;-63
2023/05/28 03:30:53;;;;;;;5.25;1.92;;;10.70;99.90;;;;;;5074063;28;20036;-63
2023/05/28 03:33:19;;;;;;;7.65;2.15;;;10.70;17.80;;;;;;5073959;28;20040;-63
2023/05/28 03:35:44;;;;;;;4.75;2.20;;;10.70;99.90;;;;;;5073953;28;20039;-63
2023/05/28 03:38:10;;;;;;;9.68;2.30;;;10.70;1.00;;;;;;5073901;28;20044;-63
2023/05/28 03:40:35;;;;;;;5.35;2.90;;;10.70;1.00;;;;;;5073781;28;20119;-63
2023/05/28 03:43:01;;;;;;;9.35;2.63;;;10.70;48.10;;;;;;5073895;28;20472;-63
2023/05/28 03:45:26;;;;;;;5.40;2.80;;;10.70;1.00;;;;;;5073795;28;20408;-63
2023/05/28 03:47:52;;;;;;;8.93;3.00;;;10.70;35.90;;;;;;5073672;28;20502;-63
2023/05/28 03:50:18;;;;;;;8.77;2.65;;;10.70;1.00;;;;;;5073730;28;20542;-63
2023/05/28 03:52:43;;;;;;;5.72;2.72;;;10.70;99.90;;;;;;5073611;28;20036;-63
2023/05/28 03:55:09;;;;;;;6.88;1.95;;;10.70;99.90;;;;;;5073591;28;20472;-63
2023/05/28 03:57:34;;;;;;;10.35;2.92;;;10.70;99.90;;;;;;5073598;28;20174;-63
2023/05/28 04:00:00;;;;;;;5.50;2.40;;;10.70;99.90;;;;;;5055327;28;20052;-63
2023/05/28 04:02:26;;;;;;;9.52;2.70;;;10.70;99.90;;;;;;5073395;28;20040;-63
2023/05/28 04:04:51;;;;;;;12.50;2.65;;;10.70;1.00;;;;;;5055226;28;20455;-63
2023/05/28 04:07:17;;;;;;;10.35;2.38;;;10.70;99.90;;;;;;5055508;28;20047;-63
2023/05/28 04:09:43;;;;;;;6.90;2.28;;;10.70;99.90;;;;;;5073338;28;20496;-63
2023/05/28 04:12:08;;;;;;;10.98;2.80;;;10.70;99.90;;;;;;5073179;28;20485;-63
2023/05/28 04:14:34;;;;;;;5.75;2.08;;;10.70;1.00;;;;;;5073239;28;20045;-63
2023/05/28 04:17:00;;;;;;;5.15;2.67;;;10.70;1.00;;;;;;5073281;28;20045;-63
2023/05/28 04:19:25;;;;;;;6.65;2.38;;;10.70;99.90;;;;;;5073118;28;20044;-63
2023/05/28 04:21:51;;;;;;;5.88;2.15;;;11.70;1.00;;;;;;5073184;28;20033;-63
2023/05/28 04:24:16;;;;;;;6.07;1.92;;;10.70;1.00;;;;;;5072862;28;20511;-63
2023/05/28 04:26:42;;;;;;;5.75;2.45;;;10.70;99.90;;;;;;5073124;28;20041;-63
2023/05/28 04:29:07;;;;;;;7.10;2.35;;;10.70;1.00;;;;;;5073147;28;20037;-63
2023/05/28 04:31:33;;;;;;;3.42;1.73;;;13.50;1.00;;;;;;5054889;28;20503;-64
2023/05/28 04:33:59;;;;;;;10.00;2.50;;;11.20;1.00;;;;;;5072797;28;20464;-63
2023/05/28 04:36:29;;;;;;;6.25;2.40;;;10.80;1.00;;;;;;5072722;28;20033;-63
2023/05/28 04:38:56;;;;;;;5.20;2.35;;;10.90;1.00;;;;;;5072971;28;20399;-63
2023/05/28 04:41:23;;;;;;;5.15;2.42;;;10.90;1.00;;;;;;5054141;28;20056;-63
2023/05/28 04:43:49;;;;;;;6.28;1.85;;;10.90;1.00;;;;;;5072676;28;20043;-63
2023/05/28 04:46:14;;;;;;;4.65;2.10;;;10.90;1.00;;;;;;5072987;28;20036;-63
2023/05/28 04:48:40;;;;;;;5.90;2.15;;;10.90;1.00;;;;;;5072894;28;20416;-63
2023/05/28 04:51:06;;;;;;;7.70;2.35;;;10.90;1.00;;;;;;5072909;28;20040;-63
2023/05/28 04:53:33;;;;;;;4.65;2.25;;;11.00;1.00;;;;;;5072887;28;20043;-63
2023/05/28 04:55:59;;;;;;;11.10;2.35;;;11.00;84.80;;;;;;5072801;28;20037;-63
2023/05/28 04:58:25;;;;;;;7.15;1.98;;;11.00;64.80;;;;;;5072789;28;20074;-63
2023/05/28 05:00:52;;;;;;;7.40;2.50;;;11.10;1.00;;;;;;5072616;28;20049;-63
2023/05/28 05:03:18;;;;;;;7.20;2.55;;;11.20;69.30;;;;;;5072817;28;20439;-63
2023/05/28 05:05:43;;;;;;;5.07;2.17;;;11.20;1.00;;;;;;5072686;28;20047;-63
2023/05/28 05:08:13;;;;;;;9.50;2.05;;;11.30;1.00;;;;;;5072522;28;20075;-63
2023/05/28 05:10:39;;;;;;;4.85;1.92;;;11.30;1.00;;;;;;5072715;28;20066;-63
2023/05/28 05:13:05;;;;;;;5.35;2.00;;;11.30;99.90;;;;;;5072318;28;20083;-63
2023/05/28 05:15:30;;;;;;;10.65;2.05;;;11.40;99.90;;;;;;5072334;28;20040;-63
2023/05/28 05:17:56;;;;;;;4.70;2.20;;;11.40;99.90;;;;;;5072638;28;20044;-64
2023/05/28 05:20:21;;;;;;;7.38;2.60;;;11.40;99.90;;;;;;5072283;28;20045;-63
2023/05/28 05:22:47;;;;;;;4.90;2.13;;;11.50;99.90;;;;;;5072595;28;20037;-63
2023/05/28 05:25:13;;;;;;;4.78;2.00;;;11.60;99.90;;;;;;5072588;28;20036;-63
2023/05/28 05:27:38;;;;;;;7.60;2.83;;;11.60;99.90;;;;;;5072228;28;20455;-63
2023/05/28 05:30:05;;;;;;;7.35;2.72;;;11.70;54.80;;;;;;5054270;28;20127;-63
2023/05/28 05:32:31;;;;;;;7.38;2.40;;;11.80;1.00;;;;;;5072404;28;20032;-63
2023/05/28 05:34:56;;;;;;;4.50;1.88;;;12.00;99.90;;;;;;5072541;28;20110;-63
2023/05/28 05:37:23;;;;;;;6.90;2.92;;;12.10;1.00;;;;;;5072167;28;20083;-63
2023/05/28 05:39:49;;;;;;;3.60;1.90;;;12.20;99.90;;;;;;5072369;28;20044;-63
2023/05/28 05:42:14;;;;;;;6.03;2.63;;;12.30;99.90;;;;;;5072352;28;20374;-63
2023/05/28 05:44:40;;;;;;;4.40;2.30;;;12.30;99.90;;;;;;5072321;28;20044;-63
2023/05/28 05:47:06;;;;;;;4.78;2.15;;;12.40;99.90;;;;;;5072316;28;20116;-63
2023/05/28 05:49:31;;;;;;;8.93;2.15;;;12.40;99.90;;;;;;5072207;28;20137;-63
2023/05/28 05:51:57;;;;;;;4.38;1.77;;;12.60;99.90;;;;;;5073849;28;20048;-63
2023/05/28 05:54:23;;;;;;;4.57;2.25;;;12.60;99.90;;;;;;5075929;28;20059;-63
2023/05/28 05:56:48;;;;;;;8.80;2.78;;;13.30;99.90;;;;;;5075900;28;20040;-63
2023/05/28 05:59:14;;;;;;;4.80;2.58;;;12.90;99.90;;;;;;5075750;28;20040;-64
2023/05/28 06:01:39;;;;;;;5.30;2.05;;;12.70;1.00;;;;;;5075781;28;20113;-63
2023/05/28 06:04:05;;;;;;;6.65;2.13;;;12.70;99.90;;;;;;5075778;28;20111;-63
2023/05/28 06:06:31;;;;;;;5.40;2.03;;;12.60;1.00;;;;;;5075448;28;20147;-63
2023/05/28 06:08:57;;;;;;;6.22;2.35;;;12.70;1.00;;;;;;5075689;28;20396;-63
2023/05/28 06:11:23;;;;;;;6.95;2.08;;;12.80;99.90;;;;;;5075561;28;20041;-63
2023/05/28 06:13:50;;;;;;;5.70;2.58;;;12.90;99.90;;;;;;5075174;28;20590;-63
2023/05/28 06:16:16;;;;;;;8.60;2.05;;;13.30;16.00;;;;;;5057313;28;20424;-63
2023/05/28 06:18:41;;;;;;;8.13;2.00;;;13.20;99.90;;;;;;5075538;28;20234;-63
2023/05/28 06:21:10;;;;;;;5.55;2.00;;;13.90;54.80;;;;;;5075433;28;20415;-63
2023/05/28 06:23:36;;;;;;;4.68;2.03;;;13.20;27.70;;;;;;5075424;28;20032;-63
2023/05/28 06:26:02;;;;;;;8.15;2.88;;;13.70;99.90;;;;;;5075370;28;20111;-63
2023/05/28 06:28:28;;;;;;;6.75;1.88;;;13.90;99.90;;;;;;5075320;28;20033;-63
2023/05/28 06:30:54;;;;;;;5.13;2.60;;;14.00;99.90;;;;;;5057104;28;20456;-63
2023/05/28 06:33:20;;;;;;;4.38;2.13;;;14.10;99.90;;;;;;5075269;28;20071;-63
2023/05/28 06:35:46;;;;;;;5.15;1.88;;;14.20;99.90;;;;;;5074849;28;20041;-63
2023/05/28 06:38:11;;;;;;;6.07;2.33;;;14.40;60.30;;;;;;5075127;28;20048;-63
2023/05/28 06:40:37;;;;;;;5.90;1.92;;;14.50;1.00;;;;;;5075079;28;20123;-63
2023/05/28 06:43:03;;;;;;;7.82;1.73;;;14.70;1.00;;;;;;5057259;28;20047;-63
2023/05/28 06:45:28;;;;;;;8.88;2.15;;;15.00;99.90;;;;;;5075041;28;20036;-64
2023/05/28 06:47:54;;;;;;;9.20;2.03;;;14.90;99.90;;;;;;5074945;28;20036;-63
2023/05/28 06:50:20;;;;;;;6.25;2.70;;;15.10;99.90;;;;;;5074846;28;20040;-63
2023/05/28 06:52:46;;;;;;;3.75;2.10;;;15.20;99.90;;;;;;5074602;28;20084;-63
2023/05/28 06:55:11;;;;;;;4.35;2.08;;;15.20;99.90;;;;;;5074845;28;20396;-63
2023/05/28 06:57:37;;;;;;;4.72;2.03;;;15.30;99.90;;;;;;5074489;28;20150;-63
2023/05/28 07:00:16;;;;;;;5.80;2.38;;;15.20;99.90;;;;;;5074624;28;20040;-63
2023/05/28 07:02:44;;;;;;;8.05;2.10;;;15.40;99.90;;;;;;5074034;28;20476;-63
2023/05/28 07:05:10;;;;;;;6.78;2.10;;;15.30;99.90;;;;;;5074363;28;20040;-63
2023/05/28 07:07:36;;;;;;;4.85;2.40;;;15.60;99.90;;;;;;5074556;28;20086;-63
2023/05/28 07:10:03;;;;;;;3.40;2.10;;;15.70;99.90;;;;;;5074145;28;20063;-63
2023/05/28 07:12:29;;;;;;;5.45;2.25;;;15.80;99.90;;;;;;5073962;28;20056;-63
2023/05/28 07:14:55;;;;;;;4.20;1.80;;;15.90;99.90;;;;;;5074125;28;20056;-63
2023/05/28 07:17:20;;;;;;;5.55;2.20;;;16.00;99.90;;;;;;5074317;28;20025;-63
2023/05/28 07:19:47;;;;;;;5.68;2.78;;;16.20;99.90;;;;;;5073871;28;20090;-63
2023/05/28 07:22:12;;;;;;;5.22;2.42;;;16.50;99.90;;;;;;5073956;28;20132;-63
2023/05/28 07:24:38;;;;;;;5.38;2.20;;;16.30;99.90;;;;;;5074090;28;20235;-63
2023/05/28 07:27:04;;;;;;;5.63;1.98;;;16.40;99.30;;;;;;5074131;28;20495;-63
2023/05/28 07:29:30;;;;;;;5.13;2.65;;;16.40;93.70;;;;;;5056237;28;20041;-63
2023/05/28 07:31:55;;;;;;;4.03;2.03;;;16.50;85.80;;;;;;5073949;28;20044;-64
2023/05/28 07:34:21;;;;;;;3.55;2.03;;;16.60;80.40;;;;;;5073894;28;20040;-68
2023/05/28 07:36:47;;;;;;;4.50;2.50;;;16.70;81.60;;;;;;5073739;28;20055;-63
2023/05/28 07:39:13;;;;;;;5.88;2.28;;;16.80;76.80;;;;;;5072565;28;20433;-63
2023/05/28 07:41:38;;;;;;;5.80;2.75;;;16.90;69.40;;;;;;5073460;28;20045;-63
2023/05/28 07:44:06;;;;;;;6.88;2.60;;;17.10;67.60;;;;;;5073730;28;20035;-63
2023/05/28 07:46:31;;;;;;;10.32;2.72;;;17.10;67.40;;;;;;5073375;28;20036;-63
2023/05/28 07:48:57;;;;;;;6.13;2.33;;;17.10;57.70;;;;;;5073659;28;20036;-63
2023/05/28 07:51:23;;;;;;;4.28;2.17;;;17.20;54.20;;;;;;5073676;28;20075;-63
2023/05/28 07:53:48;;;;;;;5.57;2.15;;;17.30;51.10;;;;;;5055414;28;20044;-63
2023/05/28 07:56:14;;;;;;;3.95;2.47;;;17.40;54.40;;;;;;5073638;28;20392;-63
2023/05/28 07:58:46;;;;;;;6.90;2.40;;;17.30;53.60;;;;;;5073531;28;20059;-63
2023/05/28 08:01:12;;;;;;;6.80;2.53;;;17.60;51.60;;;;;;5073057;28;20044;-63
2023/05/28 08:03:37;;;;;;;3.55;2.15;;;17.60;46.00;;;;;;5073021;28;20036;-63
2023/05/28 08:06:04;;;;;;;4.90;2.00;;;17.70;49.70;;;;;;5073374;28;20051;-63
2023/05/28 08:08:30;;;;;;;4.40;2.30;;;;;;;;;;5073040;28;20305;-63
2023/05/28 08:10:56;;;;;;;5.55;2.63;;;17.90;40.90;;;;;;5073261;28;20040;-63
2023/05/28 08:13:21;;;;;;;5.88;2.20;;;18.00;47.90;;;;;;5072880;28;20059;-63
2023/05/28 08:15:47;;;;;;;6.65;2.47;;;18.30;48.90;;;;;;5073145;28;20044;-63
2023/05/28 08:18:13;;;;;;;4.55;2.03;;;18.20;51.20;;;;;;5054948;28;20043;-64
2023/05/28 08:20:39;;;;;;;4.30;1.80;;;18.30;50.60;;;;;;5073169;28;20472;-63
2023/05/28 08:23:05;;;;;;;6.07;2.40;;;18.30;47.70;;;;;;5055024;28;20070;-63
2023/05/28 08:25:32;;;;;;;4.78;2.05;;;18.20;58.60;;;;;;5073192;28;20387;-64
2023/05/28 08:27:57;;;;;;;4.63;1.98;;;18.30;48.90;;;;;;5072929;28;20037;-63
2023/05/28 08:30:23;;;;;;;4.40;1.95;;;18.30;48.00;;;;;;5038571;28;20037;-63
2023/05/28 08:32:48;;;;;;;4.38;2.00;;;18.40;47.20;;;;;;5072763;28;20048;-63
2023/05/28 08:35:14;;;;;;;4.82;1.95;;;18.30;45.30;;;;;;5073044;28;20044;-63
2023/05/28 08:37:40;;;;;;;5.95;2.60;;;18.50;48.00;;;;;;5073045;28;20400;-63
2023/05/28 08:40:08;;;;;;;3.58;1.65;;;18.60;49.30;;;;;;5072642;28;20047;-63
2023/05/28 08:42:35;;;;;;;4.80;1.90;;;18.50;32.50;;;;;;5072567;28;20075;-63
2023/05/28 08:45:04;;;;;;;4.22;1.75;;;18.60;45.50;;;;;;5072976;28;20032;-63
2023/05/28 08:47:33;;;;;;;3.83;2.08;;;18.60;43.10;;;;;;5072906;28;20445;-63
2023/05/28 08:50:03;;;;;;;6.05;2.10;;;18.70;44.90;;;;;;5072636;28;20041;-63
2023/05/28 08:52:31;;;;;;;8.57;2.38;;;18.70;37.90;;;;;;5072874;28;20044;-63
2023/05/28 08:55:01;;;;;;;5.03;2.50;;;18.70;39.20;;;;;;5054968;28;20040;-63
2023/05/28 08:57:29;;;;;;;4.30;2.35;;;18.70;36.60;;;;;;5072752;28;20071;-63
2023/05/28 08:59:55;;;;;;;6.00;2.15;;;18.60;32.10;;;;;;5072726;28;20045;-63
2023/05/28 09:02:24;;;;;;;5.07;2.42;;;18.70;34.40;;;;;;5072689;28;20040;-63
2023/05/28 09:04:50;;;;;;;5.78;2.15;;;18.60;32.40;;;;;;5072727;28;20391;-64
2023/05/28 09:07:16;;;;;;;6.80;2.45;;;18.80;34.50;;;;;;5072407;28;20036;-63
2023/05/28 09:09:42;;;;;;;3.97;2.40;;;18.80;30.90;;;;;;5072427;28;20052;-63
2023/05/28 09:12:11;;;;;;;4.97;2.42;;;18.80;32.20;;;;;;5072503;28;20088;-63
2023/05/28 09:14:39;;;;;;;4.77;2.90;;;18.90;32.60;;;;;;5072670;28;20433;-63
2023/05/28 09:17:08;;;;;;;4.25;2.40;;;19.00;33.00;;;;;;5054460;28;20166;-63
2023/05/28 09:19:34;;;;;;;4.93;2.55;;;19.00;31.60;;;;;;5072605;28;20040;-63
2023/05/28 09:22:02;;;;;;;6.55;2.40;;;19.10;32.30;;;;;;5072603;28;20040;-63
2023/05/28 09:24:29;;;;;;;4.88;2.17;;;19.30;32.40;;;;;;5072315;28;20040;-63
2023/05/28 09:26:55;;;;;;;3.78;2.20;;;19.30;33.60;;;;;;5055904;28;20033;-64
2023/05/28 09:29:23;;;;;;;4.65;2.30;;;19.30;29.10;;;;;;5076457;28;20400;-63
2023/05/28 09:31:56;;;;;;;5.55;2.80;;;19.30;28.90;;;;;;5076427;28;20387;-63
2023/05/28 09:34:28;;;;;;;5.45;2.17;;;19.40;28.30;;;;;;5076381;28;20090;-63
2023/05/28 09:37:06;;;;;;;8.05;3.15;;;19.50;28.70;;;;;;5076361;28;20051;-63
2023/05/28 09:39:32;;;;;;;8.25;2.63;;;19.50;28.50;;;;;;5058256;28;20059;-63
2023/05/28 09:42:12;;;;;;;5.28;2.40;;;19.60;28.50;;;;;;5076229;28;20427;-63
2023/05/28 09:44:39;;;;;;;4.13;2.28;;;19.70;28.40;;;;;;5075857;28;20039;-63
2023/05/28 09:47:16;;;;;;;7.93;2.92;;;19.70;28.40;;;;;;5076158;28;20379;-64
2023/05/28 09:49:44;;;;;;;7.72;2.45;;;19.80;27.50;;;;;;5041168;28;20048;-64
2023/05/28 09:52:17;;;;;;;3.97;2.10;;;19.80;25.70;;;;;;5075681;28;20087;-63
2023/05/28 09:54:49;;;;;;;5.40;2.20;;;19.90;28.60;;;;;;5058071;28;20044;-63
2023/05/28 09:57:22;;;;;;;3.60;2.13;;;20.00;28.70;;;;;;5075723;28;20056;-64
2023/05/28 09:59:53;;;;;;;3.90;1.85;;;19.90;28.00;;;;;;5075697;28;20445;-63
2023/05/28 10:02:28;;;;;;;4.53;1.92;;;20.00;28.00;;;;;;5057850;28;20446;-64
2023/05/28 10:04:59;;;;;;;5.15;2.40;;;20.00;27.90;;;;;;5075812;28;20043;-63
2023/05/28 10:07:27;;;;;;;4.82;2.30;;;19.90;27.00;;;;;;5075745;28;20112;-64
2023/05/28 10:09:55;;;;;;;6.88;2.30;;;20.00;27.40;;;;;;5075746;28;20048;-63
2023/05/28 10:12:25;;;;;;;3.50;2.05;;;20.10;40.80;;;;;;5075278;28;20060;-64
2023/05/28 10:14:51;;;;;;;6.75;2.13;;;20.00;27.50;;;;;;5075698;28;20105;-64
2023/05/28 10:17:17;;;;;;;5.13;2.25;;;20.10;26.80;;;;;;5057657;28;20129;-64
2023/05/28 10:19:46;;;;;;;6.10;2.65;;;20.10;30.90;;;;;;5075423;28;20492;-64
2023/05/28 10:22:13;;;;;;;4.88;2.22;;;20.10;26.10;;;;;;5075454;28;20028;-64
2023/05/28 10:24:39;;;;;;;5.45;2.47;;;20.10;26.80;;;;;;5075219;28;20047;-64
2023/05/28 10:27:08;;;;;;;5.15;2.05;;;20.10;25.30;;;;;;5075431;28;20513;-64
2023/05/28 10:29:41;;;;;;;5.68;2.42;;;20.20;27.30;;;;;;5075247;28;20036;-65
2023/05/28 10:32:07;;;;;;;5.50;2.22;;;20.10;23.80;;;;;;5075283;28;20450;-65
2023/05/28 10:34:35;;;;;;;5.55;2.30;;;20.30;23.80;;;;;;5057036;28;20159;-64
2023/05/28 10:37:03;;;;;;;3.75;1.85;;;20.20;23.60;;;;;;5075250;28;20053;-64
2023/05/28 10:39:41;;;;;;;3.90;1.90;;;19.90;20.60;;;;;;5055645;28;20086;-63
2023/05/28 10:42:08;;;;;;;5.45;2.17;;;20.00;20.60;;;;;;5074788;28;20051;-63
2023/05/28 10:44:59;;;;;;;3.70;2.08;;;19.90;21.10;;;;;;5074789;28;20078;-64
2023/05/28 10:47:32;;;;;;;3.63;1.85;;;19.90;19.50;;;;;;5075005;28;20043;-64
2023/05/28 10:50:07;;;;;;;4.25;2.30;;;20.30;20.80;;;;;;5074935;28;20037;-64
2023/05/28 10:52:33;;;;;;;4.38;2.00;;;19.90;18.40;;;;;;5074557;28;20047;-64
2023/05/28 10:55:03;;;;;;;3.67;2.00;;;20.00;19.70;;;;;;5074914;28;20040;-64
2023/05/28 10:57:48;;;;;;;8.80;1.73;;;20.20;20.00;;;;;;5074822;28;20067;-64
2023/05/28 11:00:23;;;;;;;3.70;1.90;;;20.00;1.00;;;;;;5074322;28;20039;-63
2023/05/28 11:02:51;;;;;;;4.63;2.42;;;20.20;1.00;;;;;;5074682;28;20043;-64
2023/05/28 11:05:22;;;;;;;4.95;1.63;;;20.20;1.00;;;;;;5074697;28;20036;-64
2023/05/28 11:07:48;;;;;;;3.53;1.98;;;20.30;8.90;;;;;;5074652;28;20029;-64
2023/05/28 11:10:17;;;;;;;5.25;1.70;;;20.30;1.00;;;;;;5074511;28;20044;-64
2023/05/28 11:12:45;;;;;;;4.57;1.77;;;20.60;1.00;;;;;;5074186;28;20068;-64
2023/05/28 11:15:12;;;;;;;3.72;1.77;;;20.60;1.00;;;;;;5056323;28;20124;-64
2023/05/28 11:17:42;;;;;;;3.42;1.83;;;20.40;1.00;;;;;;5074416;28;20493;-64
2023/05/28 11:20:24;;;;;;;4.55;2.08;;;20.40;1.00;;;;;;5074352;28;20085;-64
2023/05/28 11:22:51;;;;;;;3.80;2.30;;;20.40;1.00;;;;;;5074305;28;20119;-64
2023/05/28 11:25:17;;;;;;;4.07;2.20;;;20.90;1.00;;;;;;5074226;28;20044;-63
2023/05/28 11:27:45;;;;;;;4.90;1.92;;;20.80;1.00;;;;;;5074185;28;20036;-63
2023/05/28 11:30:13;;;;;;;4.72;2.53;;;20.50;1.00;;;;;;5074097;28;20374;-63
2023/05/28 11:32:40;;;;;;;5.82;2.88;;;20.30;99.90;;;;;;5074005;28;20429;-63
2023/05/28 11:35:06;;;;;;;4.78;2.58;;;20.20;99.90;;;;;;5074051;28;20048;-63
2023/05/28 11:37:36;;;;;;;6.38;3.00;;;20.50;99.90;;;;;;5073699;28;20066;-63
2023/05/28 11:40:05;;;;;;;3.85;2.33;;;21.00;99.90;;;;;;5073864;28;20040;-63
2023/05/28 11:42:31;;;;;;;4.20;2.53;;;20.70;99.90;;;;;;5073696;28;20040;-63
2023/05/28 11:44:57;;;;;;;4.10;2.50;;;21.10;99.90;;;;;;5073822;28;20039;-64
2023/05/28 11:47:23;;;;;;;6.40;2.78;;;21.00;99.90;;;;;;5073809;28;20384;-64
2023/05/28 11:49:50;;;;;;;4.25;2.15;;;21.00;99.90;;;;;;5072263;28;20036;-64
2023/05/28 11:52:20;;;;;;;4.35;2.03;;;21.10;1.00;;;;;;5073356;28;20044;-64
2023/05/28 11:54:53;;;;;;;3.22;1.95;;;21.00;1.00;;;;;;5073673;28;20040;-64
2023/05/28 11:57:24;;;;;;;5.25;2.33;;;21.00;1.00;;;;;;5073678;28;20408;-63
2023/05/28 12:00:16;;;;;;;3.03;2.00;;;21.00;1.00;;;;;;5073497;28;20033;-63
2023/05/28 12:02:45;;;;;;;5.72;1.80;;;20.60;99.90;;;;;;5073495;28;20044;-63
2023/05/28 12:05:12;;;;;;;4.00;2.20;;;20.80;99.90;;;;;;5073539;28;20553;-63
2023/05/28 12:07:37;;;;;;;4.85;1.80;;;20.60;99.90;;;;;;5073090;28;20028;-63
2023/05/28 12:10:04;;;;;;;3.75;1.77;;;20.70;99.90;;;;;;5073414;28;20036;-64
2023/05/28 12:12:32;;;;;;;3.85;1.77;;;20.80;99.90;;;;;;5072943;28;20095;-64
2023/05/28 12:15:01;;;;;;;5.30;1.77;;;21.20;99.90;;;;;;5073362;28;20504;-63
2023/05/28 12:17:27;;;;;;;2.85;1.52;;;21.40;99.90;;;;;;5073291;28;20566;-63
2023/05/28 12:19:53;;;;;;;3.45;1.90;;;21.20;99.90;;;;;;5055023;28;20075;-63
2023/05/28 12:22:19;;;;;;;4.40;1.30;;;20.80;99.90;;;;;;5055098;28;20121;-63
2023/05/28 12:24:51;;;;;;;4.35;1.58;;;21.00;99.90;;;;;;5055039;28;20500;-63
2023/05/28 12:27:17;;;;;;;3.67;1.33;;;20.50;99.90;;;;;;5055026;28;20516;-63
2023/05/28 12:29:43;;;;;;;3.60;1.70;;;21.10;99.90;;;;;;5073152;28;20459;-63
2023/05/28 12:32:09;;;;;;;4.15;1.42;;;21.20;99.90;;;;;;5073045;28;20102;-63
2023/05/28 12:34:34;;;;;;;3.38;1.58;;;21.30;99.90;;;;;;5073073;28;20075;-63
2023/05/28 12:37:00;;;;;;;4.10;1.52;;;21.20;99.90;;;;;;5072843;28;20119;-63
2023/05/28 12:39:26;;;;;;;3.45;1.65;;;21.00;99.90;;;;;;5072829;28;20063;-63
2023/05/28 12:41:51;;;;;;;5.72;1.35;;;21.00;99.90;;;;;;5072645;28;20623;-63
2023/05/28 12:44:17;;;;;;;4.13;1.38;;;20.90;99.90;;;;;;5073020;28;20170;-63
2023/05/28 12:46:42;;;;;;;3.03;1.30;;;21.70;99.90;;;;;;5072632;28;20037;-63